PGT1548 LTFJ-LTFJ
Flight info
| Callsign | PGT1548 |
|---|---|
| Flight time | 0h 15m |
| Altitude | 33000 |
| Route | ROXUK1W/06R ROXUK UT409 NUMTI/N0427F340 UT241 DEN UW87 LAVTA UW87 ATSAL OBIXI I·Z/06R |
| Aircraft | A320/M-SDE3FGHIRWY/LB1 |
Departure
| Time | 2026-05-06 18:55 |
|---|---|
| Airport | Istanbul Sabiha Gökçen International Airport (LTFJ) |
Arrival
| Time | 2026-05-06 19:11 |
|---|---|
| Airport | Istanbul Sabiha Gökçen International Airport (LTFJ) |
| Time | Latitude | Longitude | Altitude | Speed | Heading |
|---|---|---|---|---|---|
| 2026-05-06 18:55 | 40.60847 | 29.51287 | 5990 ft | 205 kts | 242° |
| 2026-05-06 18:55 | 40.60259 | 29.49608 | 5996 ft | 202 kts | 254° |
| 2026-05-06 18:56 | 40.59812 | 29.47862 | 6002 ft | 201 kts | 256° |
| 2026-05-06 18:56 | 40.59382 | 29.46108 | 5999 ft | 201 kts | 256° |
| 2026-05-06 18:56 | 40.58955 | 29.44354 | 5989 ft | 201 kts | 256° |
| 2026-05-06 18:56 | 40.58528 | 29.42599 | 5992 ft | 202 kts | 256° |
| 2026-05-06 18:57 | 40.58102 | 29.40844 | 5983 ft | 201 kts | 256° |
| 2026-05-06 18:57 | 40.57670 | 29.39093 | 5991 ft | 201 kts | 256° |
| 2026-05-06 18:57 | 40.57241 | 29.37340 | 5988 ft | 201 kts | 256° |
| 2026-05-06 18:57 | 40.56816 | 29.35587 | 5992 ft | 201 kts | 256° |
| 2026-05-06 18:58 | 40.56391 | 29.33835 | 5985 ft | 201 kts | 256° |
| 2026-05-06 18:58 | 40.55966 | 29.32085 | 5992 ft | 201 kts | 256° |
| 2026-05-06 18:58 | 40.55541 | 29.30337 | 5982 ft | 201 kts | 256° |
| 2026-05-06 18:58 | 40.55116 | 29.28588 | 5986 ft | 201 kts | 256° |
| 2026-05-06 18:59 | 40.54690 | 29.26833 | 5985 ft | 201 kts | 256° |
| 2026-05-06 18:59 | 40.54264 | 29.25085 | 5985 ft | 201 kts | 256° |
| 2026-05-06 18:59 | 40.53835 | 29.23341 | 5989 ft | 201 kts | 256° |
| 2026-05-06 18:59 | 40.53396 | 29.21600 | 5990 ft | 200 kts | 256° |
| 2026-05-06 19:00 | 40.52982 | 29.19866 | 5972 ft | 197 kts | 262° |
| 2026-05-06 19:00 | 40.53019 | 29.18116 | 5988 ft | 191 kts | 283° |
| 2026-05-06 19:00 | 40.53297 | 29.16403 | 5993 ft | 192 kts | 285° |
| 2026-05-06 19:00 | 40.53500 | 29.15275 | 5990 ft | 192 kts | 286° |
| 2026-05-06 19:01 | 40.53920 | 29.12995 | 5989 ft | 192 kts | 286° |
| 2026-05-06 19:01 | 40.54235 | 29.11292 | 5984 ft | 192 kts | 286° |
| 2026-05-06 19:01 | 40.54552 | 29.09585 | 5979 ft | 192 kts | 286° |
| 2026-05-06 19:01 | 40.55015 | 29.07959 | 5989 ft | 190 kts | 306° |
| 2026-05-06 19:02 | 40.56001 | 29.06843 | 5981 ft | 189 kts | 335° |
| 2026-05-06 19:02 | 40.57287 | 29.06421 | 5992 ft | 192 kts | 346° |
| 2026-05-06 19:02 | 40.58604 | 29.06092 | 5993 ft | 193 kts | 347° |
| 2026-05-06 19:02 | 40.59915 | 29.05765 | 5978 ft | 191 kts | 347° |
| 2026-05-06 19:03 | 40.61225 | 29.05440 | 5991 ft | 191 kts | 347° |
| 2026-05-06 19:03 | 40.62532 | 29.05115 | 5995 ft | 193 kts | 347° |
| 2026-05-06 19:03 | 40.63850 | 29.04786 | 5892 ft | 193 kts | 347° |
| 2026-05-06 19:03 | 40.65163 | 29.04459 | 5650 ft | 191 kts | 347° |
| 2026-05-06 19:04 | 40.66469 | 29.04132 | 5375 ft | 191 kts | 347° |
| 2026-05-06 19:04 | 40.67766 | 29.03808 | 5095 ft | 191 kts | 347° |
| 2026-05-06 19:04 | 40.69066 | 29.03484 | 4955 ft | 192 kts | 346° |
| 2026-05-06 19:04 | 40.70377 | 29.03158 | 4742 ft | 189 kts | 347° |
| 2026-05-06 19:05 | 40.71671 | 29.02834 | 4639 ft | 191 kts | 346° |
| 2026-05-06 19:05 | 40.72975 | 29.02506 | 4553 ft | 191 kts | 347° |
| 2026-05-06 19:05 | 40.74279 | 29.02179 | 4469 ft | 191 kts | 347° |
| 2026-05-06 19:05 | 40.75593 | 29.01877 | 4362 ft | 192 kts | 354° |
| 2026-05-06 19:06 | 40.76880 | 29.02191 | 4249 ft | 191 kts | 21° |
| 2026-05-06 19:06 | 40.77902 | 29.03312 | 4001 ft | 193 kts | 52° |
| 2026-05-06 19:06 | 40.78634 | 29.04824 | 3840 ft | 198 kts | 55° |
| 2026-05-06 19:06 | 40.79389 | 29.06387 | 3339 ft | 204 kts | 56° |
| 2026-05-06 19:07 | 40.79897 | 29.07421 | 3160 ft | 200 kts | 56° |
| 2026-05-06 19:07 | 40.80577 | 29.08990 | 3033 ft | 195 kts | 61° |
| 2026-05-06 19:07 | 40.81191 | 29.10572 | 3005 ft | 190 kts | 62° |
| 2026-05-06 19:07 | 40.81935 | 29.12560 | 3005 ft | 177 kts | 63° |
| 2026-05-06 19:08 | 40.82470 | 29.13998 | 2913 ft | 173 kts | 63° |
| 2026-05-06 19:08 | 40.82996 | 29.15416 | 2728 ft | 171 kts | 63° |
| 2026-05-06 19:08 | 40.83518 | 29.16825 | 2513 ft | 171 kts | 63° |
| 2026-05-06 19:08 | 40.83870 | 29.17775 | 2361 ft | 170 kts | 63° |
| 2026-05-06 19:09 | 40.84390 | 29.19179 | 2137 ft | 170 kts | 63° |
| 2026-05-06 19:09 | 40.84907 | 29.20575 | 1903 ft | 169 kts | 63° |
| 2026-05-06 19:09 | 40.85421 | 29.21964 | 1684 ft | 167 kts | 63° |
| 2026-05-06 19:09 | 40.85928 | 29.23336 | 1454 ft | 165 kts | 63° |
| 2026-05-06 19:10 | 40.86429 | 29.24690 | 1235 ft | 163 kts | 63° |
| 2026-05-06 19:10 | 40.86919 | 29.26018 | 1018 ft | 159 kts | 63° |
| 2026-05-06 19:10 | 40.87398 | 29.27316 | 815 ft | 155 kts | 63° |
| 2026-05-06 19:10 | 40.87871 | 29.28583 | 621 ft | 153 kts | 63° |
| 2026-05-06 19:11 | 40.88336 | 29.29837 | 415 ft | 151 kts | 63° |
| 2026-05-06 19:11 | 40.88788 | 29.31077 | 304 ft | 147 kts | 64° |
| 2026-05-06 19:11 | 40.89125 | 29.31985 | 309 ft | 44 kts | 65° |